sensor_id;sensor_type;location;lat;lon;timestamp;P1;durP1;ratioP1;P2;durP2;ratioP2
53287;SDS011;39172;45.550;12.072;2023-07-09T00:01:23;3.10;;;2.80;;
53287;SDS011;39172;45.550;12.072;2023-07-09T00:07:27;3.20;;;2.80;;
53287;SDS011;39172;45.550;12.072;2023-07-09T00:13:29;2.80;;;2.50;;
53287;SDS011;39172;45.550;12.072;2023-07-09T00:19:29;2.70;;;2.40;;
53287;SDS011;39172;45.550;12.072;2023-07-09T00:25:30;2.80;;;2.35;;
53287;SDS011;39172;45.550;12.072;2023-07-09T00:31:31;3.60;;;3.15;;
53287;SDS011;39172;45.550;12.072;2023-07-09T00:37:32;3.83;;;3.20;;
53287;SDS011;39172;45.550;12.072;2023-07-09T00:43:34;3.28;;;2.95;;
53287;SDS011;39172;45.550;12.072;2023-07-09T00:49:39;3.42;;;3.10;;
53287;SDS011;39172;45.550;12.072;2023-07-09T00:55:49;3.40;;;2.85;;
53287;SDS011;39172;45.550;12.072;2023-07-09T01:01:53;3.10;;;2.72;;
53287;SDS011;39172;45.550;12.072;2023-07-09T01:07:54;3.22;;;2.92;;
53287;SDS011;39172;45.550;12.072;2023-07-09T01:13:59;3.92;;;2.88;;
53287;SDS011;39172;45.550;12.072;2023-07-09T01:20:03;3.25;;;2.88;;
53287;SDS011;39172;45.550;12.072;2023-07-09T01:26:10;3.67;;;2.75;;
53287;SDS011;39172;45.550;12.072;2023-07-09T01:32:13;4.18;;;3.08;;
53287;SDS011;39172;45.550;12.072;2023-07-09T01:38:14;2.58;;;2.28;;
53287;SDS011;39172;45.550;12.072;2023-07-09T01:44:15;2.28;;;2.08;;
53287;SDS011;39172;45.550;12.072;2023-07-09T01:50:16;2.35;;;2.15;;
53287;SDS011;39172;45.550;12.072;2023-07-09T01:56:18;2.17;;;1.98;;
53287;SDS011;39172;45.550;12.072;2023-07-09T02:02:20;2.33;;;1.92;;
53287;SDS011;39172;45.550;12.072;2023-07-09T02:08:21;2.78;;;2.38;;
53287;SDS011;39172;45.550;12.072;2023-07-09T02:14:22;2.63;;;2.33;;
53287;SDS011;39172;45.550;12.072;2023-07-09T02:20:22;2.80;;;2.45;;
53287;SDS011;39172;45.550;12.072;2023-07-09T02:26:23;2.83;;;2.47;;
53287;SDS011;39172;45.550;12.072;2023-07-09T02:32:25;3.38;;;2.80;;
53287;SDS011;39172;45.550;12.072;2023-07-09T02:38:27;3.17;;;2.88;;
53287;SDS011;39172;45.550;12.072;2023-07-09T02:44:28;3.40;;;3.00;;
53287;SDS011;39172;45.550;12.072;2023-07-09T02:50:29;3.10;;;2.80;;
53287;SDS011;39172;45.550;12.072;2023-07-09T02:56:30;3.08;;;2.47;;
53287;SDS011;39172;45.550;12.072;2023-07-09T03:02:31;3.25;;;2.60;;
53287;SDS011;39172;45.550;12.072;2023-07-09T03:08:32;3.03;;;2.60;;
53287;SDS011;39172;45.550;12.072;2023-07-09T03:14:33;3.47;;;3.03;;
53287;SDS011;39172;45.550;12.072;2023-07-09T03:20:33;3.83;;;2.85;;
53287;SDS011;39172;45.550;12.072;2023-07-09T03:26:34;3.03;;;2.72;;
53287;SDS011;39172;45.550;12.072;2023-07-09T03:32:35;4.32;;;3.20;;
53287;SDS011;39172;45.550;12.072;2023-07-09T03:38:36;2.80;;;2.50;;
53287;SDS011;39172;45.550;12.072;2023-07-09T03:44:37;3.88;;;2.95;;
53287;SDS011;39172;45.550;12.072;2023-07-09T03:50:38;3.13;;;2.83;;
53287;SDS011;39172;45.550;12.072;2023-07-09T03:56:39;4.03;;;3.00;;
53287;SDS011;39172;45.550;12.072;2023-07-09T04:02:40;4.10;;;3.15;;
53287;SDS011;39172;45.550;12.072;2023-07-09T04:08:41;3.10;;;2.80;;
53287;SDS011;39172;45.550;12.072;2023-07-09T04:14:42;3.47;;;2.75;;
53287;SDS011;39172;45.550;12.072;2023-07-09T04:20:43;3.67;;;3.00;;
53287;SDS011;39172;45.550;12.072;2023-07-09T04:26:44;3.30;;;3.00;;
53287;SDS011;39172;45.550;12.072;2023-07-09T04:32:45;3.65;;;3.03;;
53287;SDS011;39172;45.550;12.072;2023-07-09T04:38:46;2.83;;;2.55;;
53287;SDS011;39172;45.550;12.072;2023-07-09T04:44:47;2.50;;;2.15;;
53287;SDS011;39172;45.550;12.072;2023-07-09T04:50:48;2.30;;;2.03;;
53287;SDS011;39172;45.550;12.072;2023-07-09T04:56:50;2.33;;;1.95;;
53287;SDS011;39172;45.550;12.072;2023-07-09T05:02:51;2.90;;;2.50;;
53287;SDS011;39172;45.550;12.072;2023-07-09T05:08:52;3.78;;;2.50;;
53287;SDS011;39172;45.550;12.072;2023-07-09T05:14:54;3.42;;;3.05;;
53287;SDS011;39172;45.550;12.072;2023-07-09T05:20:57;3.60;;;3.22;;
53287;SDS011;39172;45.550;12.072;2023-07-09T05:26:57;3.97;;;3.35;;
53287;SDS011;39172;45.550;12.072;2023-07-09T05:32:58;4.15;;;3.55;;
53287;SDS011;39172;45.550;12.072;2023-07-09T05:38:59;4.38;;;3.80;;
53287;SDS011;39172;45.550;12.072;2023-07-09T05:45:00;4.70;;;4.20;;
53287;SDS011;39172;45.550;12.072;2023-07-09T05:51:01;4.57;;;3.67;;
53287;SDS011;39172;45.550;12.072;2023-07-09T05:57:02;4.65;;;3.97;;
53287;SDS011;39172;45.550;12.072;2023-07-09T06:03:03;5.32;;;4.00;;
53287;SDS011;39172;45.550;12.072;2023-07-09T06:09:08;4.10;;;3.70;;
53287;SDS011;39172;45.550;12.072;2023-07-09T06:15:09;4.95;;;3.70;;
53287;SDS011;39172;45.550;12.072;2023-07-09T06:21:11;4.93;;;4.13;;
53287;SDS011;39172;45.550;12.072;2023-07-09T06:27:13;6.10;;;4.22;;
53287;SDS011;39172;45.550;12.072;2023-07-09T06:33:14;5.45;;;4.13;;
53287;SDS011;39172;45.550;12.072;2023-07-09T06:39:16;5.80;;;4.20;;
53287;SDS011;39172;45.550;12.072;2023-07-09T06:45:17;5.25;;;4.05;;
53287;SDS011;39172;45.550;12.072;2023-07-09T06:51:17;4.32;;;3.80;;
53287;SDS011;39172;45.550;12.072;2023-07-09T06:57:18;4.28;;;3.50;;
53287;SDS011;39172;45.550;12.072;2023-07-09T07:03:20;5.43;;;4.03;;
53287;SDS011;39172;45.550;12.072;2023-07-09T07:09:21;4.90;;;4.15;;
53287;SDS011;39172;45.550;12.072;2023-07-09T07:15:22;4.35;;;3.90;;
53287;SDS011;39172;45.550;12.072;2023-07-09T07:21:23;4.70;;;3.88;;
53287;SDS011;39172;45.550;12.072;2023-07-09T07:27:24;4.25;;;3.85;;
53287;SDS011;39172;45.550;12.072;2023-07-09T07:33:24;4.97;;;3.72;;
53287;SDS011;39172;45.550;12.072;2023-07-09T07:39:25;4.57;;;4.00;;
53287;SDS011;39172;45.550;12.072;2023-07-09T07:45:26;4.68;;;3.83;;
53287;SDS011;39172;45.550;12.072;2023-07-09T07:51:27;4.97;;;4.03;;
53287;SDS011;39172;45.550;12.072;2023-07-09T07:57:28;3.90;;;3.47;;
53287;SDS011;39172;45.550;12.072;2023-07-09T08:03:29;4.60;;;3.92;;
53287;SDS011;39172;45.550;12.072;2023-07-09T08:09:30;4.70;;;4.20;;
53287;SDS011;39172;45.550;12.072;2023-07-09T08:15:31;4.38;;;3.85;;
53287;SDS011;39172;45.550;12.072;2023-07-09T08:21:32;4.72;;;4.22;;
53287;SDS011;39172;45.550;12.072;2023-07-09T08:27:33;5.35;;;3.83;;
53287;SDS011;39172;45.550;12.072;2023-07-09T08:33:34;4.90;;;4.00;;
53287;SDS011;39172;45.550;12.072;2023-07-09T08:39:35;4.10;;;3.70;;
53287;SDS011;39172;45.550;12.072;2023-07-09T08:51:43;4.15;;;3.67;;
53287;SDS011;39172;45.550;12.072;2023-07-09T08:57:52;6.10;;;3.78;;
53287;SDS011;39172;45.550;12.072;2023-07-09T09:03:58;5.43;;;4.35;;
53287;SDS011;39172;45.550;12.072;2023-07-09T09:10:01;4.80;;;4.30;;
53287;SDS011;39172;45.550;12.072;2023-07-09T09:16:04;4.72;;;3.58;;
53287;SDS011;39172;45.550;12.072;2023-07-09T09:22:08;3.92;;;3.30;;
53287;SDS011;39172;45.550;12.072;2023-07-09T09:28:09;4.45;;;3.78;;
53287;SDS011;39172;45.550;12.072;2023-07-09T09:34:16;3.92;;;3.47;;
53287;SDS011;39172;45.550;12.072;2023-07-09T09:40:18;4.43;;;3.20;;
53287;SDS011;39172;45.550;12.072;2023-07-09T09:46:25;4.93;;;3.85;;
53287;SDS011;39172;45.550;12.072;2023-07-09T09:52:29;4.03;;;3.40;;
53287;SDS011;39172;45.550;12.072;2023-07-09T09:58:31;3.78;;;2.97;;
53287;SDS011;39172;45.550;12.072;2023-07-09T10:04:32;4.30;;;3.80;;
53287;SDS011;39172;45.550;12.072;2023-07-09T10:10:33;4.20;;;3.60;;
53287;SDS011;39172;45.550;12.072;2023-07-09T10:16:36;4.88;;;4.00;;
53287;SDS011;39172;45.550;12.072;2023-07-09T10:22:46;4.22;;;3.38;;
53287;SDS011;39172;45.550;12.072;2023-07-09T10:41:04;3.50;;;3.08;;
53287;SDS011;39172;45.550;12.072;2023-07-09T10:47:21;4.28;;;3.65;;
53287;SDS011;39172;45.550;12.072;2023-07-09T10:53:43;4.00;;;3.60;;
53287;SDS011;39172;45.550;12.072;2023-07-09T10:59:46;4.90;;;3.50;;
53287;SDS011;39172;45.550;12.072;2023-07-09T11:05:49;4.28;;;3.60;;
53287;SDS011;39172;45.550;12.072;2023-07-09T11:11:51;3.97;;;3.40;;
53287;SDS011;39172;45.550;12.072;2023-07-09T11:17:53;4.30;;;3.70;;
53287;SDS011;39172;45.550;12.072;2023-07-09T11:23:58;4.10;;;3.00;;
53287;SDS011;39172;45.550;12.072;2023-07-09T11:30:04;3.60;;;2.97;;
53287;SDS011;39172;45.550;12.072;2023-07-09T11:36:25;4.82;;;3.47;;
53287;SDS011;39172;45.550;12.072;2023-07-09T11:42:34;4.45;;;3.33;;
53287;SDS011;39172;45.550;12.072;2023-07-09T11:48:35;3.83;;;3.42;;
53287;SDS011;39172;45.550;12.072;2023-07-09T11:54:36;3.90;;;3.50;;
53287;SDS011;39172;45.550;12.072;2023-07-09T12:00:59;3.83;;;3.20;;
53287;SDS011;39172;45.550;12.072;2023-07-09T12:07:01;4.47;;;3.50;;
53287;SDS011;39172;45.550;12.072;2023-07-09T12:13:03;4.97;;;3.40;;
53287;SDS011;39172;45.550;12.072;2023-07-09T12:19:05;3.97;;;3.42;;
53287;SDS011;39172;45.550;12.072;2023-07-09T12:25:07;5.28;;;4.10;;
53287;SDS011;39172;45.550;12.072;2023-07-09T12:31:20;3.85;;;3.20;;
53287;SDS011;39172;45.550;12.072;2023-07-09T12:37:22;5.18;;;3.47;;
53287;SDS011;39172;45.550;12.072;2023-07-09T12:43:25;3.72;;;3.33;;
53287;SDS011;39172;45.550;12.072;2023-07-09T12:49:28;4.03;;;3.05;;
53287;SDS011;39172;45.550;12.072;2023-07-09T12:55:29;3.95;;;3.33;;
53287;SDS011;39172;45.550;12.072;2023-07-09T13:01:38;4.10;;;3.33;;
53287;SDS011;39172;45.550;12.072;2023-07-09T13:07:40;4.97;;;4.00;;
53287;SDS011;39172;45.550;12.072;2023-07-09T13:13:41;4.40;;;3.80;;
53287;SDS011;39172;45.550;12.072;2023-07-09T13:19:42;4.40;;;3.72;;
53287;SDS011;39172;45.550;12.072;2023-07-09T13:25:43;4.72;;;3.72;;
53287;SDS011;39172;45.550;12.072;2023-07-09T13:31:44;4.53;;;3.95;;
53287;SDS011;39172;45.550;12.072;2023-07-09T13:37:46;4.72;;;3.42;;
53287;SDS011;39172;45.550;12.072;2023-07-09T13:43:47;4.57;;;3.72;;
53287;SDS011;39172;45.550;12.072;2023-07-09T13:49:49;5.70;;;3.35;;
53287;SDS011;39172;45.550;12.072;2023-07-09T13:55:50;3.60;;;3.05;;
53287;SDS011;39172;45.550;12.072;2023-07-09T14:01:52;3.15;;;2.85;;
53287;SDS011;39172;45.550;12.072;2023-07-09T14:07:53;3.42;;;2.90;;
53287;SDS011;39172;45.550;12.072;2023-07-09T14:13:54;3.95;;;2.92;;
53287;SDS011;39172;45.550;12.072;2023-07-09T14:19:56;4.90;;;3.45;;
53287;SDS011;39172;45.550;12.072;2023-07-09T14:25:59;5.47;;;3.83;;
53287;SDS011;39172;45.550;12.072;2023-07-09T14:32:00;3.92;;;3.47;;
53287;SDS011;39172;45.550;12.072;2023-07-09T14:38:01;3.50;;;3.13;;
53287;SDS011;39172;45.550;12.072;2023-07-09T14:44:02;3.20;;;2.90;;
53287;SDS011;39172;45.550;12.072;2023-07-09T14:50:03;3.75;;;3.35;;
53287;SDS011;39172;45.550;12.072;2023-07-09T14:56:04;5.18;;;4.20;;
53287;SDS011;39172;45.550;12.072;2023-07-09T15:02:11;4.32;;;3.60;;
53287;SDS011;39172;45.550;12.072;2023-07-09T15:08:20;4.45;;;3.67;;
53287;SDS011;39172;45.550;12.072;2023-07-09T15:14:24;3.53;;;3.22;;
53287;SDS011;39172;45.550;12.072;2023-07-09T15:20:29;4.35;;;3.40;;
53287;SDS011;39172;45.550;12.072;2023-07-09T15:26:30;3.97;;;3.40;;
53287;SDS011;39172;45.550;12.072;2023-07-09T15:32:32;3.33;;;3.00;;
53287;SDS011;39172;45.550;12.072;2023-07-09T15:38:33;4.22;;;3.38;;
53287;SDS011;39172;45.550;12.072;2023-07-09T15:44:35;4.65;;;4.00;;
53287;SDS011;39172;45.550;12.072;2023-07-09T15:50:36;3.53;;;2.97;;
53287;SDS011;39172;45.550;12.072;2023-07-09T15:56:37;3.30;;;3.00;;
53287;SDS011;39172;45.550;12.072;2023-07-09T16:02:38;3.10;;;2.80;;
53287;SDS011;39172;45.550;12.072;2023-07-09T16:08:39;3.50;;;3.20;;
53287;SDS011;39172;45.550;12.072;2023-07-09T16:14:40;3.88;;;3.47;;
53287;SDS011;39172;45.550;12.072;2023-07-09T16:20:41;3.65;;;3.20;;
53287;SDS011;39172;45.550;12.072;2023-07-09T16:26:42;3.92;;;2.88;;
53287;SDS011;39172;45.550;12.072;2023-07-09T16:32:43;3.45;;;2.97;;
53287;SDS011;39172;45.550;12.072;2023-07-09T16:38:45;3.20;;;2.90;;
53287;SDS011;39172;45.550;12.072;2023-07-09T16:44:46;2.60;;;2.40;;
53287;SDS011;39172;45.550;12.072;2023-07-09T16:50:48;2.90;;;2.60;;
53287;SDS011;39172;45.550;12.072;2023-07-09T16:56:49;3.47;;;2.75;;
53287;SDS011;39172;45.550;12.072;2023-07-09T17:02:50;4.50;;;3.40;;
53287;SDS011;39172;45.550;12.072;2023-07-09T17:08:51;3.80;;;3.10;;
53287;SDS011;39172;45.550;12.072;2023-07-09T17:14:52;3.53;;;2.90;;
53287;SDS011;39172;45.550;12.072;2023-07-09T17:20:54;3.78;;;2.60;;
53287;SDS011;39172;45.550;12.072;2023-07-09T17:26:56;4.30;;;2.53;;
53287;SDS011;39172;45.550;12.072;2023-07-09T17:32:57;3.22;;;2.67;;
53287;SDS011;39172;45.550;12.072;2023-07-09T17:38:58;3.60;;;3.03;;
53287;SDS011;39172;45.550;12.072;2023-07-09T17:44:59;4.53;;;3.10;;
53287;SDS011;39172;45.550;12.072;2023-07-09T17:51:00;3.45;;;3.00;;
53287;SDS011;39172;45.550;12.072;2023-07-09T17:57:01;2.72;;;2.50;;
53287;SDS011;39172;45.550;12.072;2023-07-09T18:03:06;3.13;;;2.42;;
53287;SDS011;39172;45.550;12.072;2023-07-09T18:09:07;3.65;;;2.30;;
53287;SDS011;39172;45.550;12.072;2023-07-09T18:15:13;2.58;;;2.33;;
53287;SDS011;39172;45.550;12.072;2023-07-09T18:21:15;2.63;;;2.40;;
53287;SDS011;39172;45.550;12.072;2023-07-09T18:27:16;2.95;;;2.22;;
53287;SDS011;39172;45.550;12.072;2023-07-09T18:33:17;2.30;;;2.10;;
53287;SDS011;39172;45.550;12.072;2023-07-09T18:39:18;2.22;;;2.00;;
53287;SDS011;39172;45.550;12.072;2023-07-09T18:45:21;3.28;;;2.40;;
53287;SDS011;39172;45.550;12.072;2023-07-09T18:51:22;3.22;;;2.30;;
53287;SDS011;39172;45.550;12.072;2023-07-09T18:57:23;2.55;;;2.35;;
53287;SDS011;39172;45.550;12.072;2023-07-09T19:03:28;2.60;;;2.40;;
53287;SDS011;39172;45.550;12.072;2023-07-09T19:09:31;3.23;;;2.70;;
53287;SDS011;39172;45.550;12.072;2023-07-09T19:15:33;2.85;;;2.42;;
53287;SDS011;39172;45.550;12.072;2023-07-09T19:21:35;3.28;;;2.60;;
53287;SDS011;39172;45.550;12.072;2023-07-09T19:27:36;2.88;;;2.40;;
53287;SDS011;39172;45.550;12.072;2023-07-09T19:33:38;2.75;;;2.33;;
53287;SDS011;39172;45.550;12.072;2023-07-09T19:39:40;2.30;;;2.10;;
53287;SDS011;39172;45.550;12.072;2023-07-09T19:45:42;3.78;;;2.20;;
53287;SDS011;39172;45.550;12.072;2023-07-09T19:51:43;2.40;;;2.05;;
53287;SDS011;39172;45.550;12.072;2023-07-09T19:57:45;8.50;;;2.92;;
53287;SDS011;39172;45.550;12.072;2023-07-09T20:03:46;3.65;;;2.85;;
53287;SDS011;39172;45.550;12.072;2023-07-09T20:09:46;3.67;;;2.90;;
53287;SDS011;39172;45.550;12.072;2023-07-09T20:15:47;3.55;;;2.60;;
53287;SDS011;39172;45.550;12.072;2023-07-09T20:21:48;2.90;;;2.55;;
53287;SDS011;39172;45.550;12.072;2023-07-09T20:27:50;3.10;;;2.38;;
53287;SDS011;39172;45.550;12.072;2023-07-09T20:34:04;2.55;;;2.30;;
53287;SDS011;39172;45.550;12.072;2023-07-09T20:40:13;2.50;;;2.30;;
53287;SDS011;39172;45.550;12.072;2023-07-09T20:46:14;2.10;;;1.90;;
53287;SDS011;39172;45.550;12.072;2023-07-09T20:52:17;2.65;;;2.20;;
53287;SDS011;39172;45.550;12.072;2023-07-09T20:58:20;2.70;;;2.30;;
53287;SDS011;39172;45.550;12.072;2023-07-09T21:04:21;3.22;;;2.30;;
53287;SDS011;39172;45.550;12.072;2023-07-09T21:10:23;3.05;;;2.55;;
53287;SDS011;39172;45.550;12.072;2023-07-09T21:16:24;2.38;;;2.05;;
53287;SDS011;39172;45.550;12.072;2023-07-09T21:22:25;2.47;;;2.15;;
53287;SDS011;39172;45.550;12.072;2023-07-09T21:28:26;2.75;;;1.98;;
53287;SDS011;39172;45.550;12.072;2023-07-09T21:34:28;1.95;;;1.63;;
53287;SDS011;39172;45.550;12.072;2023-07-09T21:40:31;2.17;;;1.92;;
53287;SDS011;39172;45.550;12.072;2023-07-09T21:46:32;2.42;;;2.00;;
53287;SDS011;39172;45.550;12.072;2023-07-09T21:52:33;2.78;;;2.35;;
53287;SDS011;39172;45.550;12.072;2023-07-09T21:58:34;2.20;;;1.80;;
53287;SDS011;39172;45.550;12.072;2023-07-09T22:04:35;2.15;;;1.73;;
53287;SDS011;39172;45.550;12.072;2023-07-09T22:10:36;1.90;;;1.58;;
53287;SDS011;39172;45.550;12.072;2023-07-09T22:16:37;2.45;;;2.20;;
53287;SDS011;39172;45.550;12.072;2023-07-09T22:22:38;2.22;;;1.75;;
53287;SDS011;39172;45.550;12.072;2023-07-09T22:28:39;2.30;;;2.08;;
53287;SDS011;39172;45.550;12.072;2023-07-09T22:34:41;1.90;;;1.60;;
53287;SDS011;39172;45.550;12.072;2023-07-09T22:40:42;2.75;;;2.50;;
53287;SDS011;39172;45.550;12.072;2023-07-09T22:46:43;2.17;;;1.98;;
53287;SDS011;39172;45.550;12.072;2023-07-09T22:52:44;2.60;;;2.03;;
53287;SDS011;39172;45.550;12.072;2023-07-09T22:58:46;2.17;;;1.80;;
53287;SDS011;39172;45.550;12.072;2023-07-09T23:04:46;1.70;;;1.58;;
53287;SDS011;39172;45.550;12.072;2023-07-09T23:10:48;2.80;;;2.40;;
53287;SDS011;39172;45.550;12.072;2023-07-09T23:16:50;2.20;;;1.80;;
53287;SDS011;39172;45.550;12.072;2023-07-09T23:22:51;2.20;;;2.00;;
53287;SDS011;39172;45.550;12.072;2023-07-09T23:28:53;1.92;;;1.40;;
53287;SDS011;39172;45.550;12.072;2023-07-09T23:34:54;2.13;;;1.77;;
53287;SDS011;39172;45.550;12.072;2023-07-09T23:40:55;1.70;;;1.50;;
53287;SDS011;39172;45.550;12.072;2023-07-09T23:46:57;1.30;;;1.15;;
53287;SDS011;39172;45.550;12.072;2023-07-09T23:52:58;1.50;;;1.10;;
53287;SDS011;39172;45.550;12.072;2023-07-09T23:59:00;1.75;;;1.20;;
